sensor_id;sensor_type;location;lat;lon;timestamp;P1;durP1;ratioP1;P2;durP2;ratioP2
68168;SDS011;54981;50.206;15.978;2023-06-22T00:01:01;30.95;;;14.85;;
68168;SDS011;54981;50.206;15.978;2023-06-22T00:03:32;33.05;;;15.35;;
68168;SDS011;54981;50.206;15.978;2023-06-22T00:06:02;27.30;;;14.82;;
68168;SDS011;54981;50.206;15.978;2023-06-22T00:08:32;27.02;;;15.27;;
68168;SDS011;54981;50.206;15.978;2023-06-22T00:11:03;27.75;;;14.85;;
68168;SDS011;54981;50.206;15.978;2023-06-22T00:13:33;19.10;;;13.93;;
68168;SDS011;54981;50.206;15.978;2023-06-22T00:16:04;21.48;;;15.05;;
68168;SDS011;54981;50.206;15.978;2023-06-22T00:18:35;23.77;;;16.17;;
68168;SDS011;54981;50.206;15.978;2023-06-22T00:21:05;24.98;;;15.65;;
68168;SDS011;54981;50.206;15.978;2023-06-22T00:23:36;21.95;;;16.08;;
68168;SDS011;54981;50.206;15.978;2023-06-22T00:26:06;21.05;;;15.60;;
68168;SDS011;54981;50.206;15.978;2023-06-22T00:28:37;18.67;;;14.15;;
68168;SDS011;54981;50.206;15.978;2023-06-22T00:31:07;20.58;;;14.85;;
68168;SDS011;54981;50.206;15.978;2023-06-22T00:33:38;19.92;;;13.90;;
68168;SDS011;54981;50.206;15.978;2023-06-22T00:36:08;28.08;;;14.65;;
68168;SDS011;54981;50.206;15.978;2023-06-22T00:38:39;29.33;;;15.88;;
68168;SDS011;54981;50.206;15.978;2023-06-22T00:41:10;32.88;;;15.10;;
68168;SDS011;54981;50.206;15.978;2023-06-22T00:43:40;22.83;;;13.82;;
68168;SDS011;54981;50.206;15.978;2023-06-22T00:46:12;20.88;;;15.20;;
68168;SDS011;54981;50.206;15.978;2023-06-22T00:48:42;18.67;;;14.93;;
68168;SDS011;54981;50.206;15.978;2023-06-22T00:51:14;25.73;;;16.20;;
68168;SDS011;54981;50.206;15.978;2023-06-22T00:53:44;23.67;;;15.10;;
68168;SDS011;54981;50.206;15.978;2023-06-22T00:56:16;27.38;;;15.68;;
68168;SDS011;54981;50.206;15.978;2023-06-22T00:58:49;23.08;;;15.32;;
68168;SDS011;54981;50.206;15.978;2023-06-22T01:01:22;17.67;;;13.55;;
68168;SDS011;54981;50.206;15.978;2023-06-22T01:03:53;22.65;;;14.95;;
68168;SDS011;54981;50.206;15.978;2023-06-22T01:06:29;35.00;;;16.23;;
68168;SDS011;54981;50.206;15.978;2023-06-22T01:09:20;36.38;;;16.77;;
68168;SDS011;54981;50.206;15.978;2023-06-22T01:11:56;29.83;;;16.30;;
68168;SDS011;54981;50.206;15.978;2023-06-22T01:14:35;21.77;;;15.48;;
68168;SDS011;54981;50.206;15.978;2023-06-22T01:17:22;23.20;;;14.63;;
68168;SDS011;54981;50.206;15.978;2023-06-22T01:19:54;20.27;;;16.70;;
68168;SDS011;54981;50.206;15.978;2023-06-22T01:22:27;23.13;;;16.20;;
68168;SDS011;54981;50.206;15.978;2023-06-22T01:30:45;24.42;;;16.52;;
68168;SDS011;54981;50.206;15.978;2023-06-22T01:33:16;25.48;;;14.85;;
68168;SDS011;54981;50.206;15.978;2023-06-22T01:35:47;21.13;;;14.93;;
68168;SDS011;54981;50.206;15.978;2023-06-22T01:38:17;23.25;;;14.43;;
68168;SDS011;54981;50.206;15.978;2023-06-22T01:40:48;25.33;;;15.27;;
68168;SDS011;54981;50.206;15.978;2023-06-22T01:43:21;26.80;;;15.98;;
68168;SDS011;54981;50.206;15.978;2023-06-22T01:45:53;23.63;;;14.20;;
68168;SDS011;54981;50.206;15.978;2023-06-22T01:48:25;25.85;;;15.48;;
68168;SDS011;54981;50.206;15.978;2023-06-22T01:50:56;28.00;;;15.68;;
68168;SDS011;54981;50.206;15.978;2023-06-22T01:53:27;28.23;;;15.35;;
68168;SDS011;54981;50.206;15.978;2023-06-22T01:55:57;27.98;;;16.27;;
68168;SDS011;54981;50.206;15.978;2023-06-22T01:58:29;19.00;;;14.10;;
68168;SDS011;54981;50.206;15.978;2023-06-22T02:01:06;24.35;;;14.00;;
68168;SDS011;54981;50.206;15.978;2023-06-22T02:03:41;23.55;;;14.23;;
68168;SDS011;54981;50.206;15.978;2023-06-22T02:06:17;22.45;;;14.43;;
68168;SDS011;54981;50.206;15.978;2023-06-22T02:08:57;32.35;;;15.18;;
68168;SDS011;54981;50.206;15.978;2023-06-22T02:11:31;38.13;;;15.75;;
68168;SDS011;54981;50.206;15.978;2023-06-22T02:14:03;34.83;;;15.00;;
68168;SDS011;54981;50.206;15.978;2023-06-22T02:19:07;27.23;;;15.05;;
68168;SDS011;54981;50.206;15.978;2023-06-22T02:21:38;27.65;;;15.60;;
68168;SDS011;54981;50.206;15.978;2023-06-22T02:24:08;26.98;;;15.52;;
68168;SDS011;54981;50.206;15.978;2023-06-22T02:26:39;27.23;;;14.80;;
68168;SDS011;54981;50.206;15.978;2023-06-22T02:29:12;24.88;;;15.23;;
68168;SDS011;54981;50.206;15.978;2023-06-22T02:31:43;18.50;;;14.38;;
68168;SDS011;54981;50.206;15.978;2023-06-22T02:34:13;24.63;;;14.32;;
68168;SDS011;54981;50.206;15.978;2023-06-22T02:36:48;26.63;;;14.18;;
68168;SDS011;54981;50.206;15.978;2023-06-22T02:39:23;24.73;;;14.73;;
68168;SDS011;54981;50.206;15.978;2023-06-22T02:41:54;25.88;;;13.73;;
68168;SDS011;54981;50.206;15.978;2023-06-22T02:44:25;20.73;;;14.45;;
68168;SDS011;54981;50.206;15.978;2023-06-22T02:46:55;21.58;;;14.63;;
68168;SDS011;54981;50.206;15.978;2023-06-22T02:49:26;24.15;;;17.15;;
68168;SDS011;54981;50.206;15.978;2023-06-22T02:51:56;25.98;;;17.90;;
68168;SDS011;54981;50.206;15.978;2023-06-22T02:54:27;20.80;;;16.27;;
68168;SDS011;54981;50.206;15.978;2023-06-22T02:56:57;29.23;;;16.95;;
68168;SDS011;54981;50.206;15.978;2023-06-22T02:59:28;27.38;;;16.63;;
68168;SDS011;54981;50.206;15.978;2023-06-22T03:01:58;26.02;;;17.02;;
68168;SDS011;54981;50.206;15.978;2023-06-22T03:04:29;25.55;;;16.38;;
68168;SDS011;54981;50.206;15.978;2023-06-22T03:07:01;22.30;;;15.95;;
68168;SDS011;54981;50.206;15.978;2023-06-22T03:09:32;23.73;;;15.88;;
68168;SDS011;54981;50.206;15.978;2023-06-22T03:12:02;30.73;;;16.42;;
68168;SDS011;54981;50.206;15.978;2023-06-22T03:14:33;29.63;;;15.55;;
68168;SDS011;54981;50.206;15.978;2023-06-22T03:17:04;17.67;;;13.68;;
68168;SDS011;54981;50.206;15.978;2023-06-22T03:19:35;16.90;;;12.82;;
68168;SDS011;54981;50.206;15.978;2023-06-22T03:22:05;20.70;;;13.68;;
68168;SDS011;54981;50.206;15.978;2023-06-22T03:24:40;25.25;;;15.55;;
68168;SDS011;54981;50.206;15.978;2023-06-22T03:27:10;20.52;;;15.32;;
68168;SDS011;54981;50.206;15.978;2023-06-22T03:29:41;23.60;;;16.02;;
68168;SDS011;54981;50.206;15.978;2023-06-22T03:32:11;25.90;;;16.05;;
68168;SDS011;54981;50.206;15.978;2023-06-22T03:34:42;31.48;;;15.07;;
68168;SDS011;54981;50.206;15.978;2023-06-22T03:37:17;23.95;;;14.32;;
68168;SDS011;54981;50.206;15.978;2023-06-22T03:39:47;28.25;;;15.25;;
68168;SDS011;54981;50.206;15.978;2023-06-22T03:42:18;28.40;;;16.45;;
68168;SDS011;54981;50.206;15.978;2023-06-22T03:44:48;21.40;;;14.68;;
68168;SDS011;54981;50.206;15.978;2023-06-22T03:47:19;32.55;;;14.48;;
68168;SDS011;54981;50.206;15.978;2023-06-22T03:49:49;31.10;;;16.15;;
68168;SDS011;54981;50.206;15.978;2023-06-22T03:52:19;24.75;;;15.10;;
68168;SDS011;54981;50.206;15.978;2023-06-22T03:54:50;23.83;;;15.77;;
68168;SDS011;54981;50.206;15.978;2023-06-22T03:57:21;26.52;;;14.48;;
68168;SDS011;54981;50.206;15.978;2023-06-22T03:59:51;25.10;;;14.90;;
68168;SDS011;54981;50.206;15.978;2023-06-22T04:02:21;24.15;;;15.02;;
68168;SDS011;54981;50.206;15.978;2023-06-22T04:04:52;24.85;;;15.88;;
68168;SDS011;54981;50.206;15.978;2023-06-22T04:07:22;21.58;;;15.00;;
68168;SDS011;54981;50.206;15.978;2023-06-22T04:09:53;21.13;;;15.65;;
68168;SDS011;54981;50.206;15.978;2023-06-22T04:12:23;22.05;;;16.02;;
68168;SDS011;54981;50.206;15.978;2023-06-22T04:14:53;28.73;;;16.25;;
68168;SDS011;54981;50.206;15.978;2023-06-22T04:17:24;26.42;;;16.70;;
68168;SDS011;54981;50.206;15.978;2023-06-22T04:19:55;24.05;;;15.98;;
68168;SDS011;54981;50.206;15.978;2023-06-22T04:22:25;21.25;;;16.15;;
68168;SDS011;54981;50.206;15.978;2023-06-22T04:24:55;20.80;;;16.80;;
68168;SDS011;54981;50.206;15.978;2023-06-22T04:27:26;22.38;;;16.25;;
68168;SDS011;54981;50.206;15.978;2023-06-22T04:29:57;19.30;;;15.20;;
68168;SDS011;54981;50.206;15.978;2023-06-22T04:32:30;18.73;;;15.25;;
68168;SDS011;54981;50.206;15.978;2023-06-22T04:35:00;22.02;;;15.05;;
68168;SDS011;54981;50.206;15.978;2023-06-22T04:37:31;17.95;;;15.50;;
68168;SDS011;54981;50.206;15.978;2023-06-22T04:40:01;19.85;;;15.90;;
68168;SDS011;54981;50.206;15.978;2023-06-22T04:42:34;16.67;;;13.32;;
68168;SDS011;54981;50.206;15.978;2023-06-22T04:45:06;23.45;;;13.70;;
68168;SDS011;54981;50.206;15.978;2023-06-22T04:47:36;16.13;;;12.93;;
68168;SDS011;54981;50.206;15.978;2023-06-22T04:50:09;14.82;;;10.95;;
68168;SDS011;54981;50.206;15.978;2023-06-22T04:52:40;18.67;;;13.55;;
68168;SDS011;54981;50.206;15.978;2023-06-22T04:55:10;16.90;;;12.15;;
68168;SDS011;54981;50.206;15.978;2023-06-22T04:57:41;16.88;;;11.88;;
68168;SDS011;54981;50.206;15.978;2023-06-22T05:00:18;15.98;;;11.75;;
68168;SDS011;54981;50.206;15.978;2023-06-22T05:02:49;15.77;;;12.45;;
68168;SDS011;54981;50.206;15.978;2023-06-22T05:05:20;16.95;;;12.65;;
68168;SDS011;54981;50.206;15.978;2023-06-22T05:07:50;17.75;;;13.30;;
68168;SDS011;54981;50.206;15.978;2023-06-22T05:10:22;14.38;;;12.80;;
68168;SDS011;54981;50.206;15.978;2023-06-22T05:12:53;16.55;;;13.45;;
68168;SDS011;54981;50.206;15.978;2023-06-22T05:15:23;16.80;;;11.95;;
68168;SDS011;54981;50.206;15.978;2023-06-22T05:17:58;17.23;;;12.25;;
68168;SDS011;54981;50.206;15.978;2023-06-22T05:20:28;18.05;;;14.25;;
68168;SDS011;54981;50.206;15.978;2023-06-22T05:22:58;14.30;;;12.15;;
68168;SDS011;54981;50.206;15.978;2023-06-22T05:25:29;20.42;;;12.55;;
68168;SDS011;54981;50.206;15.978;2023-06-22T05:28:00;17.15;;;12.65;;
68168;SDS011;54981;50.206;15.978;2023-06-22T05:30:30;17.27;;;12.65;;
68168;SDS011;54981;50.206;15.978;2023-06-22T05:33:01;14.63;;;12.60;;
68168;SDS011;54981;50.206;15.978;2023-06-22T05:35:31;16.83;;;12.93;;
68168;SDS011;54981;50.206;15.978;2023-06-22T05:38:01;14.32;;;11.90;;
68168;SDS011;54981;50.206;15.978;2023-06-22T05:40:32;14.13;;;10.70;;
68168;SDS011;54981;50.206;15.978;2023-06-22T05:43:02;12.98;;;10.43;;
68168;SDS011;54981;50.206;15.978;2023-06-22T05:45:33;16.40;;;11.07;;
68168;SDS011;54981;50.206;15.978;2023-06-22T05:48:03;14.93;;;10.25;;
68168;SDS011;54981;50.206;15.978;2023-06-22T05:50:34;12.52;;;10.52;;
68168;SDS011;54981;50.206;15.978;2023-06-22T05:53:04;14.80;;;10.02;;
68168;SDS011;54981;50.206;15.978;2023-06-22T05:55:36;17.30;;;10.80;;
68168;SDS011;54981;50.206;15.978;2023-06-22T05:58:07;13.43;;;10.35;;
68168;SDS011;54981;50.206;15.978;2023-06-22T06:00:37;16.92;;;9.57;;
68168;SDS011;54981;50.206;15.978;2023-06-22T06:03:08;16.27;;;10.15;;
68168;SDS011;54981;50.206;15.978;2023-06-22T06:05:39;13.52;;;11.18;;
68168;SDS011;54981;50.206;15.978;2023-06-22T06:08:09;12.98;;;10.10;;
68168;SDS011;54981;50.206;15.978;2023-06-22T06:10:41;13.77;;;10.27;;
68168;SDS011;54981;50.206;15.978;2023-06-22T06:13:11;15.13;;;9.85;;
68168;SDS011;54981;50.206;15.978;2023-06-22T06:15:41;14.73;;;11.32;;
68168;SDS011;54981;50.206;15.978;2023-06-22T06:18:12;17.20;;;12.07;;
68168;SDS011;54981;50.206;15.978;2023-06-22T06:20:42;14.27;;;11.13;;
68168;SDS011;54981;50.206;15.978;2023-06-22T06:23:13;15.57;;;10.48;;
68168;SDS011;54981;50.206;15.978;2023-06-22T06:25:43;17.30;;;12.40;;
68168;SDS011;54981;50.206;15.978;2023-06-22T06:28:14;12.27;;;10.48;;
68168;SDS011;54981;50.206;15.978;2023-06-22T06:30:44;15.43;;;11.55;;
68168;SDS011;54981;50.206;15.978;2023-06-22T06:33:17;14.23;;;11.63;;
68168;SDS011;54981;50.206;15.978;2023-06-22T06:35:47;14.45;;;11.80;;
68168;SDS011;54981;50.206;15.978;2023-06-22T06:38:18;16.52;;;12.82;;
68168;SDS011;54981;50.206;15.978;2023-06-22T06:40:48;15.25;;;11.98;;
68168;SDS011;54981;50.206;15.978;2023-06-22T06:43:19;16.83;;;11.85;;
68168;SDS011;54981;50.206;15.978;2023-06-22T06:45:49;14.40;;;11.77;;
68168;SDS011;54981;50.206;15.978;2023-06-22T06:48:19;14.93;;;12.20;;
68168;SDS011;54981;50.206;15.978;2023-06-22T06:50:50;13.85;;;12.35;;
68168;SDS011;54981;50.206;15.978;2023-06-22T06:53:20;14.45;;;12.38;;
68168;SDS011;54981;50.206;15.978;2023-06-22T06:55:51;15.77;;;12.90;;
68168;SDS011;54981;50.206;15.978;2023-06-22T06:58:21;14.50;;;11.60;;
68168;SDS011;54981;50.206;15.978;2023-06-22T07:00:52;16.40;;;12.10;;
68168;SDS011;54981;50.206;15.978;2023-06-22T07:03:23;14.10;;;10.52;;
68168;SDS011;54981;50.206;15.978;2023-06-22T07:05:53;13.73;;;10.60;;
68168;SDS011;54981;50.206;15.978;2023-06-22T07:08:24;14.25;;;11.45;;
68168;SDS011;54981;50.206;15.978;2023-06-22T07:10:55;14.77;;;11.55;;
68168;SDS011;54981;50.206;15.978;2023-06-22T07:13:26;15.27;;;10.45;;
68168;SDS011;54981;50.206;15.978;2023-06-22T07:15:56;16.05;;;10.05;;
68168;SDS011;54981;50.206;15.978;2023-06-22T07:18:26;13.93;;;9.68;;
68168;SDS011;54981;50.206;15.978;2023-06-22T07:20:57;12.20;;;9.70;;
68168;SDS011;54981;50.206;15.978;2023-06-22T07:23:28;14.77;;;10.63;;
68168;SDS011;54981;50.206;15.978;2023-06-22T07:25:58;14.77;;;10.20;;
68168;SDS011;54981;50.206;15.978;2023-06-22T07:28:31;12.80;;;10.40;;
68168;SDS011;54981;50.206;15.978;2023-06-22T07:31:07;13.35;;;10.60;;
68168;SDS011;54981;50.206;15.978;2023-06-22T07:33:37;15.63;;;10.30;;
68168;SDS011;54981;50.206;15.978;2023-06-22T07:36:08;12.95;;;9.55;;
68168;SDS011;54981;50.206;15.978;2023-06-22T07:38:38;11.45;;;10.25;;
68168;SDS011;54981;50.206;15.978;2023-06-22T07:41:09;13.88;;;11.48;;
68168;SDS011;54981;50.206;15.978;2023-06-22T07:43:39;13.85;;;11.52;;
68168;SDS011;54981;50.206;15.978;2023-06-22T07:46:09;13.60;;;10.32;;
68168;SDS011;54981;50.206;15.978;2023-06-22T07:48:40;14.70;;;10.70;;
68168;SDS011;54981;50.206;15.978;2023-06-22T07:51:11;13.73;;;10.85;;
68168;SDS011;54981;50.206;15.978;2023-06-22T07:53:45;15.02;;;11.10;;
68168;SDS011;54981;50.206;15.978;2023-06-22T07:56:15;14.35;;;11.00;;
68168;SDS011;54981;50.206;15.978;2023-06-22T07:58:49;13.73;;;10.68;;
68168;SDS011;54981;50.206;15.978;2023-06-22T08:01:19;15.80;;;11.23;;
68168;SDS011;54981;50.206;15.978;2023-06-22T08:03:51;11.73;;;10.07;;
68168;SDS011;54981;50.206;15.978;2023-06-22T08:06:21;14.75;;;11.45;;
68168;SDS011;54981;50.206;15.978;2023-06-22T08:08:51;13.98;;;10.80;;
68168;SDS011;54981;50.206;15.978;2023-06-22T08:11:23;12.80;;;10.60;;
68168;SDS011;54981;50.206;15.978;2023-06-22T08:13:55;15.10;;;10.23;;
68168;SDS011;54981;50.206;15.978;2023-06-22T08:16:28;11.05;;;9.52;;
68168;SDS011;54981;50.206;15.978;2023-06-22T08:18:58;12.13;;;9.93;;
68168;SDS011;54981;50.206;15.978;2023-06-22T08:21:28;17.83;;;11.48;;
68168;SDS011;54981;50.206;15.978;2023-06-22T08:23:59;14.52;;;10.82;;
68168;SDS011;54981;50.206;15.978;2023-06-22T08:26:29;13.95;;;11.15;;
68168;SDS011;54981;50.206;15.978;2023-06-22T08:29:00;13.27;;;10.57;;
68168;SDS011;54981;50.206;15.978;2023-06-22T08:31:30;17.27;;;10.88;;
68168;SDS011;54981;50.206;15.978;2023-06-22T08:36:33;12.60;;;11.17;;
68168;SDS011;54981;50.206;15.978;2023-06-22T08:39:11;15.38;;;11.00;;
68168;SDS011;54981;50.206;15.978;2023-06-22T08:41:41;11.50;;;10.40;;
68168;SDS011;54981;50.206;15.978;2023-06-22T08:44:12;13.43;;;10.32;;
68168;SDS011;54981;50.206;15.978;2023-06-22T08:46:42;10.95;;;9.85;;
68168;SDS011;54981;50.206;15.978;2023-06-22T08:49:13;11.82;;;10.05;;
68168;SDS011;54981;50.206;15.978;2023-06-22T08:51:43;13.40;;;11.07;;
68168;SDS011;54981;50.206;15.978;2023-06-22T08:54:19;12.43;;;10.45;;
68168;SDS011;54981;50.206;15.978;2023-06-22T08:56:49;15.15;;;10.63;;
68168;SDS011;54981;50.206;15.978;2023-06-22T08:59:20;12.18;;;10.77;;
68168;SDS011;54981;50.206;15.978;2023-06-22T09:01:50;13.20;;;10.40;;
68168;SDS011;54981;50.206;15.978;2023-06-22T09:04:20;14.95;;;9.90;;
68168;SDS011;54981;50.206;15.978;2023-06-22T09:06:52;11.13;;;9.65;;
68168;SDS011;54981;50.206;15.978;2023-06-22T09:09:22;15.13;;;11.20;;
68168;SDS011;54981;50.206;15.978;2023-06-22T09:11:52;11.73;;;9.90;;
68168;SDS011;54981;50.206;15.978;2023-06-22T09:14:23;11.57;;;10.38;;
68168;SDS011;54981;50.206;15.978;2023-06-22T09:16:53;13.48;;;10.13;;
68168;SDS011;54981;50.206;15.978;2023-06-22T09:19:24;13.05;;;10.30;;
68168;SDS011;54981;50.206;15.978;2023-06-22T09:21:54;11.60;;;10.43;;
68168;SDS011;54981;50.206;15.978;2023-06-22T09:24:24;13.27;;;10.90;;
68168;SDS011;54981;50.206;15.978;2023-06-22T09:26:55;12.73;;;10.65;;
68168;SDS011;54981;50.206;15.978;2023-06-22T09:29:25;11.02;;;9.85;;
68168;SDS011;54981;50.206;15.978;2023-06-22T09:31:56;12.60;;;9.65;;
68168;SDS011;54981;50.206;15.978;2023-06-22T09:34:26;13.38;;;10.02;;
68168;SDS011;54981;50.206;15.978;2023-06-22T09:36:56;10.88;;;9.77;;
68168;SDS011;54981;50.206;15.978;2023-06-22T09:39:27;9.30;;;8.35;;
68168;SDS011;54981;50.206;15.978;2023-06-22T09:41:58;11.77;;;9.02;;
68168;SDS011;54981;50.206;15.978;2023-06-22T09:44:30;10.90;;;9.35;;
68168;SDS011;54981;50.206;15.978;2023-06-22T09:47:00;11.68;;;9.13;;
68168;SDS011;54981;50.206;15.978;2023-06-22T09:49:30;11.10;;;8.93;;
68168;SDS011;54981;50.206;15.978;2023-06-22T09:52:02;12.85;;;9.85;;
68168;SDS011;54981;50.206;15.978;2023-06-22T09:54:32;9.80;;;8.50;;
68168;SDS011;54981;50.206;15.978;2023-06-22T09:57:03;12.07;;;9.48;;
68168;SDS011;54981;50.206;15.978;2023-06-22T09:59:34;13.13;;;9.93;;
68168;SDS011;54981;50.206;15.978;2023-06-22T10:02:04;10.48;;;9.43;;
68168;SDS011;54981;50.206;15.978;2023-06-22T10:04:35;12.48;;;11.18;;
68168;SDS011;54981;50.206;15.978;2023-06-22T10:07:06;17.00;;;11.48;;
68168;SDS011;54981;50.206;15.978;2023-06-22T10:09:36;13.70;;;10.63;;
68168;SDS011;54981;50.206;15.978;2023-06-22T10:12:07;11.60;;;10.40;;
68168;SDS011;54981;50.206;15.978;2023-06-22T10:14:37;11.75;;;10.13;;
68168;SDS011;54981;50.206;15.978;2023-06-22T10:17:08;11.70;;;10.27;;
68168;SDS011;54981;50.206;15.978;2023-06-22T10:19:38;13.23;;;10.88;;
68168;SDS011;54981;50.206;15.978;2023-06-22T10:22:11;10.93;;;9.93;;
68168;SDS011;54981;50.206;15.978;2023-06-22T10:24:41;11.77;;;9.80;;
68168;SDS011;54981;50.206;15.978;2023-06-22T10:27:15;11.40;;;9.68;;
68168;SDS011;54981;50.206;15.978;2023-06-22T10:29:49;12.77;;;9.75;;
68168;SDS011;54981;50.206;15.978;2023-06-22T10:32:19;15.68;;;9.55;;
68168;SDS011;54981;50.206;15.978;2023-06-22T10:34:49;12.77;;;9.05;;
68168;SDS011;54981;50.206;15.978;2023-06-22T10:37:20;11.05;;;9.23;;
68168;SDS011;54981;50.206;15.978;2023-06-22T10:39:50;11.43;;;9.68;;
68168;SDS011;54981;50.206;15.978;2023-06-22T10:42:21;11.00;;;8.88;;
68168;SDS011;54981;50.206;15.978;2023-06-22T10:44:51;10.13;;;9.10;;
68168;SDS011;54981;50.206;15.978;2023-06-22T10:47:22;10.95;;;8.73;;
68168;SDS011;54981;50.206;15.978;2023-06-22T10:49:52;12.10;;;9.40;;
68168;SDS011;54981;50.206;15.978;2023-06-22T10:52:22;10.30;;;9.20;;
68168;SDS011;54981;50.206;15.978;2023-06-22T10:54:53;15.43;;;9.70;;
68168;SDS011;54981;50.206;15.978;2023-06-22T10:57:23;12.35;;;9.73;;
68168;SDS011;54981;50.206;15.978;2023-06-22T10:59:54;12.40;;;9.40;;
68168;SDS011;54981;50.206;15.978;2023-06-22T11:02:24;10.77;;;9.57;;
68168;SDS011;54981;50.206;15.978;2023-06-22T11:04:54;11.88;;;9.13;;
68168;SDS011;54981;50.206;15.978;2023-06-22T11:07:25;10.93;;;9.50;;
68168;SDS011;54981;50.206;15.978;2023-06-22T11:09:57;14.50;;;9.52;;
68168;SDS011;54981;50.206;15.978;2023-06-22T11:12:27;10.88;;;8.95;;
68168;SDS011;54981;50.206;15.978;2023-06-22T11:14:58;11.55;;;8.93;;
68168;SDS011;54981;50.206;15.978;2023-06-22T11:17:28;11.35;;;8.20;;
68168;SDS011;54981;50.206;15.978;2023-06-22T11:19:59;10.20;;;8.73;;
68168;SDS011;54981;50.206;15.978;2023-06-22T11:22:30;10.48;;;9.35;;
68168;SDS011;54981;50.206;15.978;2023-06-22T11:25:03;9.48;;;8.35;;
68168;SDS011;54981;50.206;15.978;2023-06-22T11:27:34;10.63;;;8.77;;
68168;SDS011;54981;50.206;15.978;2023-06-22T11:30:05;12.13;;;9.13;;
68168;SDS011;54981;50.206;15.978;2023-06-22T11:32:36;15.88;;;9.63;;
68168;SDS011;54981;50.206;15.978;2023-06-22T11:35:06;12.00;;;9.40;;
68168;SDS011;54981;50.206;15.978;2023-06-22T11:37:37;12.98;;;9.43;;
68168;SDS011;54981;50.206;15.978;2023-06-22T11:40:07;12.65;;;9.52;;
68168;SDS011;54981;50.206;15.978;2023-06-22T11:42:39;13.65;;;9.57;;
68168;SDS011;54981;50.206;15.978;2023-06-22T11:45:09;10.98;;;8.93;;
68168;SDS011;54981;50.206;15.978;2023-06-22T11:47:40;11.25;;;9.40;;
68168;SDS011;54981;50.206;15.978;2023-06-22T11:50:10;10.45;;;9.23;;
68168;SDS011;54981;50.206;15.978;2023-06-22T11:52:40;12.40;;;9.10;;
68168;SDS011;54981;50.206;15.978;2023-06-22T11:55:11;10.05;;;8.57;;
68168;SDS011;54981;50.206;15.978;2023-06-22T11:57:54;11.63;;;9.68;;
68168;SDS011;54981;50.206;15.978;2023-06-22T12:00:26;10.88;;;9.40;;
68168;SDS011;54981;50.206;15.978;2023-06-22T12:02:56;11.90;;;9.15;;
68168;SDS011;54981;50.206;15.978;2023-06-22T12:05:27;10.50;;;9.35;;
68168;SDS011;54981;50.206;15.978;2023-06-22T12:07:57;12.77;;;9.50;;
68168;SDS011;54981;50.206;15.978;2023-06-22T12:10:28;11.77;;;9.15;;
68168;SDS011;54981;50.206;15.978;2023-06-22T12:13:01;10.50;;;9.50;;
68168;SDS011;54981;50.206;15.978;2023-06-22T12:15:31;10.40;;;8.82;;
68168;SDS011;54981;50.206;15.978;2023-06-22T12:18:02;10.90;;;9.80;;
68168;SDS011;54981;50.206;15.978;2023-06-22T12:20:32;10.82;;;9.50;;
68168;SDS011;54981;50.206;15.978;2023-06-22T12:23:04;10.07;;;9.07;;
68168;SDS011;54981;50.206;15.978;2023-06-22T12:25:34;10.48;;;9.13;;
68168;SDS011;54981;50.206;15.978;2023-06-22T12:28:05;9.70;;;8.70;;
68168;SDS011;54981;50.206;15.978;2023-06-22T12:30:35;10.68;;;9.38;;
68168;SDS011;54981;50.206;15.978;2023-06-22T12:33:05;10.20;;;8.93;;
68168;SDS011;54981;50.206;15.978;2023-06-22T12:35:36;10.27;;;9.20;;
68168;SDS011;54981;50.206;15.978;2023-06-22T12:38:06;11.55;;;8.38;;
68168;SDS011;54981;50.206;15.978;2023-06-22T12:40:38;9.80;;;8.80;;
68168;SDS011;54981;50.206;15.978;2023-06-22T12:43:08;9.30;;;8.07;;
68168;SDS011;54981;50.206;15.978;2023-06-22T12:45:39;10.65;;;8.30;;
68168;SDS011;54981;50.206;15.978;2023-06-22T12:48:10;9.88;;;8.63;;
68168;SDS011;54981;50.206;15.978;2023-06-22T12:50:41;9.60;;;8.32;;
68168;SDS011;54981;50.206;15.978;2023-06-22T12:53:11;8.88;;;7.97;;
68168;SDS011;54981;50.206;15.978;2023-06-22T12:55:41;9.43;;;8.15;;
68168;SDS011;54981;50.206;15.978;2023-06-22T12:58:12;9.73;;;8.00;;
68168;SDS011;54981;50.206;15.978;2023-06-22T13:00:42;14.35;;;9.02;;
68168;SDS011;54981;50.206;15.978;2023-06-22T13:03:12;10.90;;;8.90;;
68168;SDS011;54981;50.206;15.978;2023-06-22T13:05:43;10.73;;;8.70;;
68168;SDS011;54981;50.206;15.978;2023-06-22T13:08:13;10.23;;;8.68;;
68168;SDS011;54981;50.206;15.978;2023-06-22T13:10:44;12.35;;;8.70;;
68168;SDS011;54981;50.206;15.978;2023-06-22T13:13:14;11.27;;;8.77;;
68168;SDS011;54981;50.206;15.978;2023-06-22T13:15:45;10.52;;;9.05;;
68168;SDS011;54981;50.206;15.978;2023-06-22T13:18:15;12.57;;;8.95;;
68168;SDS011;54981;50.206;15.978;2023-06-22T13:20:45;11.85;;;8.85;;
68168;SDS011;54981;50.206;15.978;2023-06-22T13:23:16;10.05;;;8.57;;
68168;SDS011;54981;50.206;15.978;2023-06-22T13:25:47;11.27;;;8.73;;
68168;SDS011;54981;50.206;15.978;2023-06-22T13:28:18;12.52;;;8.80;;
68168;SDS011;54981;50.206;15.978;2023-06-22T13:30:48;10.55;;;8.10;;
68168;SDS011;54981;50.206;15.978;2023-06-22T13:33:19;10.63;;;9.23;;
68168;SDS011;54981;50.206;15.978;2023-06-22T13:35:49;12.45;;;9.32;;
68168;SDS011;54981;50.206;15.978;2023-06-22T13:38:19;11.82;;;9.45;;
68168;SDS011;54981;50.206;15.978;2023-06-22T13:40:50;10.93;;;9.80;;
68168;SDS011;54981;50.206;15.978;2023-06-22T13:43:20;11.88;;;8.90;;
68168;SDS011;54981;50.206;15.978;2023-06-22T13:45:51;15.07;;;9.18;;
68168;SDS011;54981;50.206;15.978;2023-06-22T13:48:21;12.63;;;9.90;;
68168;SDS011;54981;50.206;15.978;2023-06-22T13:50:53;10.35;;;9.30;;
68168;SDS011;54981;50.206;15.978;2023-06-22T13:53:24;12.10;;;9.40;;
68168;SDS011;54981;50.206;15.978;2023-06-22T13:55:56;11.43;;;9.33;;
68168;SDS011;54981;50.206;15.978;2023-06-22T13:58:26;12.57;;;9.20;;
68168;SDS011;54981;50.206;15.978;2023-06-22T14:00:57;12.82;;;9.15;;
68168;SDS011;54981;50.206;15.978;2023-06-22T14:03:27;9.75;;;8.75;;
68168;SDS011;54981;50.206;15.978;2023-06-22T14:05:58;11.73;;;9.98;;
68168;SDS011;54981;50.206;15.978;2023-06-22T14:08:28;12.07;;;10.23;;
68168;SDS011;54981;50.206;15.978;2023-06-22T14:10:59;11.15;;;10.02;;
68168;SDS011;54981;50.206;15.978;2023-06-22T14:13:29;11.13;;;10.02;;
68168;SDS011;54981;50.206;15.978;2023-06-22T14:16:00;13.45;;;9.75;;
68168;SDS011;54981;50.206;15.978;2023-06-22T14:18:30;13.02;;;10.52;;
68168;SDS011;54981;50.206;15.978;2023-06-22T14:21:00;12.68;;;10.50;;
68168;SDS011;54981;50.206;15.978;2023-06-22T14:23:31;10.13;;;8.95;;
68168;SDS011;54981;50.206;15.978;2023-06-22T14:26:01;10.43;;;9.32;;
68168;SDS011;54981;50.206;15.978;2023-06-22T14:28:31;10.95;;;9.85;;
68168;SDS011;54981;50.206;15.978;2023-06-22T14:31:02;10.98;;;9.88;;
68168;SDS011;54981;50.206;15.978;2023-06-22T14:33:32;12.23;;;9.65;;
68168;SDS011;54981;50.206;15.978;2023-06-22T14:36:03;12.10;;;10.07;;
68168;SDS011;54981;50.206;15.978;2023-06-22T14:38:33;10.88;;;9.45;;
68168;SDS011;54981;50.206;15.978;2023-06-22T14:41:04;11.52;;;10.32;;
68168;SDS011;54981;50.206;15.978;2023-06-22T14:43:34;11.02;;;9.57;;
68168;SDS011;54981;50.206;15.978;2023-06-22T14:46:05;11.15;;;9.35;;